Time;durP1;ratioP1;P1;durP2;ratioP2;P2;SDS_P1;SDS_P2;PMS_P1;PMS_P2;Temp;Humidity;BMP_temperature;BMP_pressure;BME280_temperature;BME280_humidity;BME280_pressure;Samples;Min_cycle;Max_cycle;Signal;HPM_P1;HPM_P2
2021/01/22 00:02:03;;;;;;;1.53;1.43;;;20.90;21.30;;;;;;5054850;28;20186;-54
2021/01/22 00:04:28;;;;;;;1.40;1.20;;;20.90;21.30;;;;;;5036888;28;20550;-54
2021/01/22 00:06:55;;;;;;;1.33;1.23;;;20.90;21.30;;;;;;5054677;28;20167;-55
2021/01/22 00:09:21;;;;;;;1.60;1.50;;;20.90;21.30;;;;;;5054209;28;20305;-54
2021/01/22 00:11:47;;;;;;;1.70;1.60;;;20.90;21.30;;;;;;5054649;28;20623;-54
2021/01/22 00:14:13;;;;;;;1.30;1.20;;;20.90;21.30;;;;;;5054406;28;20464;-54
2021/01/22 00:16:38;;;;;;;1.85;1.60;;;20.90;21.30;;;;;;5054582;28;20202;-54
2021/01/22 00:19:04;;;;;;;2.20;1.40;;;20.90;21.30;;;;;;5054774;28;20195;-54
2021/01/22 00:21:30;;;;;;;1.97;1.77;;;20.90;21.30;;;;;;5054389;28;20441;-54
2021/01/22 00:23:56;;;;;;;1.63;1.53;;;20.90;21.30;;;;;;5054040;28;20156;-54
2021/01/22 00:26:22;;;;;;;1.42;1.30;;;20.90;21.30;;;;;;5054428;28;20368;-54
2021/01/22 00:28:48;;;;;;;1.50;1.40;;;20.90;21.30;;;;;;5054298;28;20249;-54
2021/01/22 00:31:13;;;;;;;1.20;1.07;;;20.90;21.30;;;;;;5054457;28;20223;-54
2021/01/22 00:33:39;;;;;;;1.50;1.40;;;20.90;21.30;;;;;;5054231;28;20182;-54
2021/01/22 00:36:05;;;;;;;1.67;1.30;;;20.90;21.30;;;;;;5054188;28;20155;-54
2021/01/22 00:38:31;;;;;;;1.70;1.60;;;20.90;21.30;;;;;;5053891;28;20155;-54
2021/01/22 00:40:57;;;;;;;1.67;1.40;;;20.90;21.30;;;;;;5054073;28;20155;-54
2021/01/22 00:43:26;;;;;;;1.30;1.03;;;20.90;21.30;;;;;;5053865;28;20209;-55
2021/01/22 00:45:52;;;;;;;1.38;1.17;;;20.90;21.30;;;;;;5054042;28;20210;-54
2021/01/22 00:48:18;;;;;;;1.73;1.55;;;20.90;21.30;;;;;;5054119;28;20167;-55
2021/01/22 00:50:43;;;;;;;1.57;1.20;;;20.90;21.30;;;;;;5054000;28;20159;-55
2021/01/22 00:53:09;;;;;;;1.93;1.30;;;20.90;21.30;;;;;;5053475;28;20615;-54
2021/01/22 00:55:35;;;;;;;1.30;1.20;;;20.90;21.90;;;;;;5053604;28;20492;-53
2021/01/22 00:58:00;;;;;;;1.40;1.20;;;20.90;21.30;;;;;;5053573;28;20159;-54
2021/01/22 01:00:26;;;;;;;1.20;1.10;;;20.90;21.30;;;;;;5055688;28;20175;-54
2021/01/22 01:02:51;;;;;;;1.70;1.60;;;20.90;21.40;;;;;;5073645;28;20182;-54
2021/01/22 01:05:17;;;;;;;1.33;1.13;;;20.90;21.40;;;;;;5073631;28;20186;-54
2021/01/22 01:07:43;;;;;;;1.43;1.33;;;20.90;21.40;;;;;;5073242;28;20606;-54
2021/01/22 01:10:09;;;;;;;1.47;1.20;;;20.90;21.40;;;;;;5073714;28;20738;-54
2021/01/22 01:12:34;;;;;;;1.42;1.20;;;20.90;21.40;;;;;;5073589;28;20162;-55
2021/01/22 01:15:00;;;;;;;1.20;1.10;;;20.90;21.40;;;;;;5073697;28;20648;-54
2021/01/22 01:17:26;;;;;;;1.60;1.50;;;20.90;21.40;;;;;;5073696;28;20166;-54
2021/01/22 01:19:51;;;;;;;1.37;1.27;;;20.90;21.40;;;;;;5073577;28;20249;-54
2021/01/22 01:22:17;;;;;;;1.67;1.57;;;20.80;21.30;;;;;;5073143;28;20755;-54
2021/01/22 01:24:43;;;;;;;3.07;1.60;;;20.80;21.40;;;;;;5073730;28;20487;-54
2021/01/22 01:27:09;;;;;;;1.37;1.27;;;20.80;21.40;;;;;;5073440;28;20166;-55
2021/01/22 01:29:34;;;;;;;2.00;1.40;;;20.80;21.40;;;;;;5073559;28;20162;-54
2021/01/22 01:32:00;;;;;;;1.17;0.97;;;20.80;21.40;;;;;;5073445;28;20161;-55
2021/01/22 01:34:26;;;;;;;1.70;1.50;;;20.80;21.40;;;;;;5073452;28;20190;-55
2021/01/22 01:36:52;;;;;;;1.50;1.40;;;20.80;21.40;;;;;;5073530;28;20186;-54
2021/01/22 01:39:18;;;;;;;1.20;1.10;;;20.80;21.40;;;;;;5073011;28;20193;-54
2021/01/22 01:41:43;;;;;;;1.00;1.00;;;20.80;21.40;;;;;;5073590;28;20194;-54
2021/01/22 01:44:09;;;;;;;1.23;1.13;;;20.80;21.50;;;;;;5073329;28;20613;-55
2021/01/22 01:46:35;;;;;;;1.60;1.50;;;20.80;21.50;;;;;;5073597;28;20602;-54
2021/01/22 01:49:01;;;;;;;1.07;0.97;;;20.80;21.50;;;;;;5073075;28;20554;-54
2021/01/22 01:51:27;;;;;;;1.20;1.10;;;20.80;21.50;;;;;;5073391;28;20200;-55
2021/01/22 01:53:53;;;;;;;1.17;1.08;;;20.80;21.50;;;;;;5072843;28;20618;-54
2021/01/22 01:56:21;;;;;;;2.25;1.25;;;20.80;21.50;;;;;;5073328;28;20625;-54
2021/01/22 01:58:47;;;;;;;1.50;1.40;;;20.80;21.50;;;;;;5073037;28;20151;-54
2021/01/22 02:01:16;;;;;;;1.43;1.33;;;20.80;21.50;;;;;;5062735;28;20175;-54
2021/01/22 02:03:42;;;;;;;1.27;1.13;;;20.80;21.50;;;;;;5053008;28;20171;-54
2021/01/22 02:06:08;;;;;;;1.20;1.10;;;20.80;21.50;;;;;;5053015;28;20606;-54
2021/01/22 02:08:34;;;;;;;1.27;1.17;;;20.80;21.50;;;;;;5055474;28;20555;-54
2021/01/22 02:11:01;;;;;;;1.27;1.17;;;20.80;21.50;;;;;;5056933;28;20198;-55
2021/01/22 02:13:31;;;;;;;1.35;1.25;;;20.80;21.50;;;;;;5056898;28;20603;-53
2021/01/22 02:15:59;;;;;;;1.30;1.20;;;20.80;21.50;;;;;;5056719;28;20570;-54
2021/01/22 02:18:25;;;;;;;1.10;1.00;;;20.80;21.50;;;;;;5056864;28;20155;-54
2021/01/22 02:21:13;;;;;;;1.37;1.27;;;20.70;21.50;;;;;;5056710;28;20448;-54
2021/01/22 02:23:41;;;;;;;1.00;0.80;;;20.70;21.50;;;;;;5038225;28;20932;-53
2021/01/22 02:26:28;;;;;;;1.27;1.17;;;20.80;21.50;;;;;;5056711;28;20163;-54
2021/01/22 02:28:58;;;;;;;1.60;1.50;;;20.70;21.50;;;;;;5056528;28;20159;-53
2021/01/22 02:31:25;;;;;;;1.52;1.42;;;20.70;21.50;;;;;;5056694;28;20510;-53
2021/01/22 02:33:55;;;;;;;1.17;1.00;;;20.70;21.50;;;;;;5056533;28;20163;-54
2021/01/22 02:36:22;;;;;;;1.92;1.40;;;20.70;21.50;;;;;;5056407;28;20151;-54
2021/01/22 02:38:49;;;;;;;1.20;1.10;;;20.70;21.50;;;;;;5056038;28;20155;-54
2021/01/22 02:41:20;;;;;;;1.40;1.30;;;20.70;21.50;;;;;;5056511;28;20190;-54
2021/01/22 02:43:51;;;;;;;1.30;1.20;;;20.70;21.50;;;;;;5056251;28;20177;-54
2021/01/22 02:46:18;;;;;;;1.30;1.20;;;20.70;21.50;;;;;;5056358;28;20156;-54
2021/01/22 02:48:45;;;;;;;1.30;1.20;;;20.70;21.50;;;;;;5056344;28;20234;-54
2021/01/22 02:51:11;;;;;;;1.75;1.63;;;20.70;21.50;;;;;;5056324;28;20182;-54
2021/01/22 02:53:37;;;;;;;1.48;0.80;;;20.70;21.50;;;;;;5055735;28;20187;-54
2021/01/22 02:56:09;;;;;;;1.43;1.33;;;20.70;21.50;;;;;;5056177;28;20209;-54
2021/01/22 02:58:46;;;;;;;1.42;1.33;;;20.70;21.50;;;;;;5056196;28;20409;-54
2021/01/22 03:01:16;;;;;;;1.52;1.42;;;20.70;21.50;;;;;;5055973;28;20171;-54
2021/01/22 03:04:04;;;;;;;1.17;1.08;;;20.70;21.50;;;;;;5055943;28;20151;-54
2021/01/22 03:06:35;;;;;;;3.05;1.42;;;20.70;21.50;;;;;;5055916;28;20602;-54
2021/01/22 03:09:02;;;;;;;1.48;1.38;;;20.70;21.50;;;;;;5055318;28;20334;-54
2021/01/22 03:11:29;;;;;;;1.15;1.00;;;20.70;21.50;;;;;;5055952;28;20182;-54
2021/01/22 03:13:57;;;;;;;1.15;1.05;;;20.70;22.10;;;;;;5055743;28;20247;-55
2021/01/22 03:16:27;;;;;;;1.30;1.10;;;20.70;21.50;;;;;;5055815;28;20603;-54
2021/01/22 03:19:03;;;;;;;1.58;1.48;;;20.70;21.50;;;;;;5054906;28;20166;-54
2021/01/22 03:21:29;;;;;;;1.30;1.20;;;20.70;21.50;;;;;;5055600;28;20238;-55
2021/01/22 03:23:56;;;;;;;1.20;0.97;;;20.70;21.60;;;;;;5055181;28;20250;-54
2021/01/22 03:26:21;;;;;;;1.20;1.10;;;20.70;21.60;;;;;;5055641;28;20388;-53
2021/01/22 03:28:48;;;;;;;1.30;1.13;;;20.70;21.60;;;;;;5055397;28;20152;-55
2021/01/22 03:31:13;;;;;;;1.40;1.25;;;20.70;21.60;;;;;;5055604;28;20162;-54
2021/01/22 03:33:39;;;;;;;1.17;1.07;;;20.70;22.10;;;;;;5055441;28;20163;-54
2021/01/22 03:36:06;;;;;;;2.50;1.37;;;20.70;21.50;;;;;;5055274;28;20400;-54
2021/01/22 03:38:32;;;;;;;1.20;0.95;;;20.70;21.50;;;;;;5054958;28;20166;-54
2021/01/22 03:40:58;;;;;;;1.40;1.23;;;20.70;21.60;;;;;;5055342;28;20217;-54
2021/01/22 03:43:23;;;;;;;1.57;1.30;;;20.70;21.60;;;;;;5055026;28;20630;-54
2021/01/22 03:45:49;;;;;;;1.30;1.20;;;20.70;21.60;;;;;;5053820;28;20178;-54
2021/01/22 03:48:15;;;;;;;1.33;1.23;;;20.70;21.60;;;;;;5055356;28;20167;-54
2021/01/22 03:50:40;;;;;;;1.80;1.27;;;20.70;21.60;;;;;;5055197;28;20178;-54
2021/01/22 03:53:06;;;;;;;0.97;0.90;;;20.70;21.60;;;;;;5054599;28;20270;-54
2021/01/22 03:55:32;;;;;;;1.17;1.00;;;20.70;21.60;;;;;;5055175;28;20649;-54
2021/01/22 03:57:57;;;;;;;1.13;1.03;;;20.70;21.60;;;;;;5054919;28;20277;-55
2021/01/22 04:00:26;;;;;;;1.30;1.13;;;20.70;21.60;;;;;;5055039;28;20649;-54
2021/01/22 04:02:52;;;;;;;1.10;1.00;;;20.70;21.60;;;;;;5054719;28;20256;-54
2021/01/22 04:05:17;;;;;;;1.43;1.33;;;20.70;21.60;;;;;;5054801;28;20191;-54
2021/01/22 04:07:43;;;;;;;1.70;1.60;;;20.70;21.60;;;;;;5054104;28;20151;-54
2021/01/22 04:10:09;;;;;;;0.90;0.90;;;20.70;21.60;;;;;;5054677;28;20701;-54
2021/01/22 04:12:35;;;;;;;1.23;1.13;;;20.70;21.60;;;;;;5054562;28;20216;-54
2021/01/22 04:15:04;;;;;;;1.17;0.90;;;20.70;21.60;;;;;;5054664;28;20402;-54
2021/01/22 04:17:30;;;;;;;1.25;1.10;;;20.70;21.60;;;;;;5054539;28;20163;-54
2021/01/22 04:19:56;;;;;;;1.10;1.00;;;20.70;21.60;;;;;;5054591;28;20158;-54
2021/01/22 04:22:21;;;;;;;1.10;1.00;;;20.70;21.60;;;;;;5054193;28;20714;-54
2021/01/22 04:24:47;;;;;;;1.50;1.40;;;20.70;21.60;;;;;;5054492;28;20151;-54
2021/01/22 04:27:12;;;;;;;1.10;1.00;;;20.60;21.60;;;;;;5054216;28;20641;-54
2021/01/22 04:29:39;;;;;;;1.53;1.40;;;20.60;21.60;;;;;;5054609;28;20234;-53
2021/01/22 04:32:06;;;;;;;1.30;1.00;;;20.70;21.60;;;;;;5053233;28;20159;-55
2021/01/22 04:34:32;;;;;;;1.05;0.90;;;20.60;21.60;;;;;;5054249;28;20178;-54
2021/01/22 04:36:58;;;;;;;1.10;1.00;;;20.60;21.60;;;;;;5036349;28;20167;-54
2021/01/22 04:39:24;;;;;;;0.90;0.90;;;20.60;21.60;;;;;;5053737;28;20824;-54
2021/01/22 04:41:51;;;;;;;1.30;1.20;;;20.60;21.60;;;;;;5053903;28;20208;-54
2021/01/22 04:44:17;;;;;;;1.50;1.15;;;20.60;21.60;;;;;;5054024;28;20156;-54
2021/01/22 04:46:44;;;;;;;1.10;1.00;;;20.60;21.60;;;;;;5054128;28;20607;-53
2021/01/22 04:49:10;;;;;;;1.15;1.05;;;20.60;21.60;;;;;;5053929;28;20166;-54
2021/01/22 04:51:36;;;;;;;1.30;1.20;;;20.60;21.60;;;;;;5053988;28;20155;-53
2021/01/22 04:54:05;;;;;;;2.55;1.45;;;20.60;21.60;;;;;;5053334;28;20205;-53
2021/01/22 04:56:35;;;;;;;1.20;1.10;;;20.60;21.60;;;;;;5053464;28;20147;-54
2021/01/22 04:59:07;;;;;;;1.30;0.90;;;20.60;21.60;;;;;;5053765;28;20155;-54
2021/01/22 05:01:34;;;;;;;1.00;0.90;;;20.60;21.70;;;;;;5053700;28;20495;-54
2021/01/22 05:03:59;;;;;;;1.30;1.20;;;20.60;21.60;;;;;;5053689;28;20159;-53
2021/01/22 05:06:25;;;;;;;1.50;1.30;;;20.60;21.70;;;;;;5053717;28;20250;-54
2021/01/22 05:08:53;;;;;;;0.70;0.70;;;20.60;21.70;;;;;;5053142;28;20214;-54
2021/01/22 05:11:19;;;;;;;1.08;1.00;;;20.60;21.70;;;;;;5053630;28;20201;-54
2021/01/22 05:13:46;;;;;;;1.23;1.13;;;20.60;21.70;;;;;;5053647;28;20160;-53
2021/01/22 05:16:15;;;;;;;1.20;1.10;;;20.60;21.70;;;;;;5036033;28;20614;-54
2021/01/22 05:18:42;;;;;;;1.48;0.98;;;20.60;21.70;;;;;;5053372;28;20286;-54
2021/01/22 05:21:13;;;;;;;1.20;1.00;;;20.60;21.70;;;;;;5053489;28;20713;-54
2021/01/22 05:23:40;;;;;;;1.25;1.15;;;20.60;21.70;;;;;;5052951;28;20202;-54
2021/01/22 05:26:08;;;;;;;0.88;0.80;;;20.60;21.70;;;;;;5053718;28;20197;-54
2021/01/22 05:28:41;;;;;;;1.08;0.98;;;20.50;21.60;;;;;;5053545;28;20238;-54
2021/01/22 05:31:11;;;;;;;1.13;0.88;;;20.60;21.70;;;;;;5053372;28;20166;-54
2021/01/22 05:33:39;;;;;;;1.00;0.90;;;20.60;21.70;;;;;;5053302;28;20159;-54
2021/01/22 05:36:29;;;;;;;1.33;1.23;;;20.60;21.70;;;;;;5053471;28;20186;-53
2021/01/22 05:38:57;;;;;;;1.08;0.98;;;20.50;21.70;;;;;;5052655;28;20155;-54
2021/01/22 05:41:26;;;;;;;0.90;0.90;;;20.60;21.80;;;;;;5053251;28;20210;-54
2021/01/22 05:43:51;;;;;;;0.82;0.80;;;20.50;21.70;;;;;;5056593;28;20159;-53
2021/01/22 05:46:20;;;;;;;1.70;1.60;;;20.60;21.80;;;;;;5057351;28;20162;-53
2021/01/22 05:48:46;;;;;;;0.90;0.90;;;20.60;21.80;;;;;;5056014;28;20968;-53
2021/01/22 05:51:12;;;;;;;1.20;1.00;;;20.60;21.70;;;;;;5057278;28;20162;-54
2021/01/22 05:53:48;;;;;;;1.00;0.90;;;20.60;21.80;;;;;;5056783;28;20191;-53
2021/01/22 05:56:16;;;;;;;0.70;0.65;;;20.60;21.70;;;;;;5057170;28;20553;-54
2021/01/22 05:58:47;;;;;;;1.33;0.95;;;20.60;21.80;;;;;;5057334;28;20158;-54
2021/01/22 06:01:17;;;;;;;1.45;1.00;;;20.60;21.70;;;;;;5056787;28;20178;-54
2021/01/22 06:03:47;;;;;;;1.42;1.33;;;20.60;21.70;;;;;;5056788;28;20643;-55
2021/01/22 06:06:14;;;;;;;1.00;0.90;;;20.60;21.70;;;;;;5056899;28;20162;-54
2021/01/22 06:08:57;;;;;;;1.30;0.73;;;20.60;21.80;;;;;;5056305;28;20632;-54
2021/01/22 06:11:24;;;;;;;0.80;0.80;;;20.60;21.80;;;;;;5057087;28;20209;-53
2021/01/22 06:13:51;;;;;;;1.27;1.17;;;20.60;21.80;;;;;;5056466;28;20201;-53
2021/01/22 06:16:22;;;;;;;1.27;0.90;;;20.60;21.80;;;;;;5056730;28;20175;-53
2021/01/22 06:18:54;;;;;;;1.20;1.10;;;20.60;21.80;;;;;;5056441;28;20187;-53
2021/01/22 06:21:34;;;;;;;0.80;0.80;;;20.60;21.80;;;;;;5056667;28;20246;-54
2021/01/22 06:24:02;;;;;;;1.08;0.85;;;20.60;21.80;;;;;;5056117;28;20242;-54
2021/01/22 06:26:30;;;;;;;1.30;1.20;;;20.60;21.80;;;;;;5056397;28;20154;-54
2021/01/22 06:29:01;;;;;;;1.15;0.90;;;20.60;21.80;;;;;;5056327;28;20151;-54
2021/01/22 06:31:28;;;;;;;1.10;1.00;;;20.60;21.80;;;;;;5056363;28;20159;-54
2021/01/22 06:33:58;;;;;;;0.77;0.75;;;20.60;21.80;;;;;;5056259;28;20626;-54
2021/01/22 06:36:27;;;;;;;0.82;0.82;;;20.60;22.30;;;;;;5056346;28;20238;-54
2021/01/22 06:38:54;;;;;;;1.00;1.00;;;20.60;21.80;;;;;;5055726;28;20201;-54
2021/01/22 06:41:28;;;;;;;1.27;0.80;;;20.60;21.80;;;;;;5055080;28;20257;-54
2021/01/22 06:43:57;;;;;;;1.20;1.10;;;20.60;21.70;;;;;;5056157;28;20147;-55
2021/01/22 06:46:31;;;;;;;1.10;0.90;;;20.60;22.30;;;;;;5056347;28;20155;-54
2021/01/22 06:49:04;;;;;;;1.48;0.80;;;20.60;21.80;;;;;;5055891;28;20201;-55
2021/01/22 06:51:33;;;;;;;1.08;1.00;;;20.60;21.80;;;;;;5056245;28;20151;-54
2021/01/22 06:54:03;;;;;;;1.23;1.13;;;20.60;22.30;;;;;;5054204;28;20174;-54
2021/01/22 06:56:29;;;;;;;1.00;0.90;;;20.60;21.70;;;;;;5055976;28;20239;-54
2021/01/22 06:59:21;;;;;;;1.00;0.90;;;20.60;21.70;;;;;;5055743;28;20183;-54
2021/01/22 07:01:48;;;;;;;1.58;1.25;;;20.60;21.70;;;;;;5048921;28;20211;-55
2021/01/22 07:04:29;;;;;;;1.00;0.90;;;20.60;21.70;;;;;;5055584;28;20170;-55
2021/01/22 07:06:58;;;;;;;1.13;1.05;;;20.70;21.80;;;;;;5055481;28;20262;-54
2021/01/22 07:09:50;;;;;;;0.73;0.73;;;20.70;21.80;;;;;;5037523;28;20253;-54
2021/01/22 07:12:17;;;;;;;1.10;1.00;;;20.70;21.80;;;;;;5047163;28;20195;-55
2021/01/22 07:14:48;;;;;;;0.75;0.75;;;20.70;21.80;;;;;;5055256;28;20162;-54
2021/01/22 07:17:20;;;;;;;0.90;0.80;;;20.70;21.70;;;;;;5055321;28;20151;-54
2021/01/22 07:20:06;;;;;;;1.00;0.90;;;20.70;21.70;;;;;;5055385;28;20676;-53
2021/01/22 07:22:32;;;;;;;1.33;1.10;;;20.70;21.70;;;;;;5054556;28;20191;-54
2021/01/22 07:25:00;;;;;;;1.40;1.20;;;20.70;21.70;;;;;;5055200;28;20155;-55
2021/01/22 07:27:44;;;;;;;1.13;1.02;;;20.70;21.80;;;;;;5055075;28;20167;-54
2021/01/22 07:30:17;;;;;;;1.15;1.05;;;20.70;21.70;;;;;;5055120;28;20156;-54
2021/01/22 07:32:48;;;;;;;1.05;0.85;;;20.70;21.70;;;;;;5055093;28;20190;-54
2021/01/22 07:35:21;;;;;;;1.15;1.05;;;20.70;22.20;;;;;;5054951;28;20152;-54
2021/01/22 07:37:48;;;;;;;1.63;1.02;;;20.70;21.60;;;;;;5053035;28;20189;-53
2021/01/22 07:40:14;;;;;;;1.77;1.67;;;20.70;21.60;;;;;;5054674;28;20193;-54
2021/01/22 07:42:41;;;;;;;1.17;1.05;;;20.70;21.60;;;;;;5036399;28;20233;-55
2021/01/22 07:45:12;;;;;;;0.80;0.70;;;20.70;21.60;;;;;;5054258;28;20172;-54
2021/01/22 07:47:43;;;;;;;1.30;1.20;;;20.70;21.60;;;;;;5052756;28;20535;-54
2021/01/22 07:50:12;;;;;;;1.08;1.00;;;20.80;21.70;;;;;;5054176;28;20171;-54
2021/01/22 07:52:43;;;;;;;0.80;0.80;;;20.80;21.60;;;;;;5045984;28;20171;-54
2021/01/22 07:55:16;;;;;;;1.75;0.80;;;20.80;22.20;;;;;;5050366;28;20175;-55
2021/01/22 07:57:42;;;;;;;1.10;0.93;;;20.80;21.60;;;;;;5029944;28;20564;-55
2021/01/22 08:00:13;;;;;;;1.30;1.20;;;20.80;21.60;;;;;;5028626;28;20732;-54
2021/01/22 08:02:53;;;;;;;1.42;1.20;;;20.80;21.60;;;;;;5037336;28;20268;-55
2021/01/22 08:05:32;;;;;;;1.15;1.05;;;20.80;21.50;;;;;;5031787;28;20175;-55
2021/01/22 08:07:59;;;;;;;0.90;0.80;;;20.80;21.50;;;;;;5036794;28;20214;-54
2021/01/22 08:10:33;;;;;;;1.42;0.80;;;20.90;21.60;;;;;;5048136;28;20219;-55
2021/01/22 08:13:00;;;;;;;1.25;1.15;;;20.90;21.50;;;;;;5047911;28;20273;-54
2021/01/22 08:15:27;;;;;;;0.82;0.82;;;20.90;21.50;;;;;;5047423;28;20201;-54
2021/01/22 08:17:54;;;;;;;1.20;1.10;;;20.90;21.50;;;;;;5045117;28;20187;-55
2021/01/22 08:20:21;;;;;;;1.10;0.93;;;20.90;21.40;;;;;;5047278;28;20191;-54
2021/01/22 08:22:55;;;;;;;1.30;1.00;;;20.90;21.40;;;;;;5050996;28;20202;-55
2021/01/22 08:25:27;;;;;;;1.92;0.80;;;20.90;21.30;;;;;;5043665;28;20170;-55
2021/01/22 08:27:57;;;;;;;0.80;0.75;;;21.00;21.40;;;;;;5047607;28;20175;-54
2021/01/22 08:30:25;;;;;;;1.23;0.90;;;21.00;21.40;;;;;;5045051;28;20682;-55
2021/01/22 08:32:53;;;;;;;1.17;1.00;;;21.00;21.30;;;;;;5042219;28;20200;-55
2021/01/22 08:35:20;;;;;;;0.98;0.65;;;21.00;21.30;;;;;;5046784;28;20268;-54
2021/01/22 08:37:46;;;;;;;0.80;0.80;;;21.00;21.30;;;;;;5049349;28;20206;-54
2021/01/22 08:40:13;;;;;;;0.97;0.97;;;21.00;21.20;;;;;;5050239;28;20215;-55
2021/01/22 08:42:38;;;;;;;1.00;0.90;;;21.10;21.10;;;;;;5050158;28;20191;-55
2021/01/22 08:45:06;;;;;;;0.90;0.90;;;21.10;21.00;;;;;;5051349;28;20167;-56
2021/01/22 08:47:40;;;;;;;1.10;1.00;;;21.10;21.00;;;;;;5049178;28;20186;-56
2021/01/22 08:50:07;;;;;;;1.25;0.70;;;21.10;21.00;;;;;;5050047;28;20275;-54
2021/01/22 08:52:32;;;;;;;1.50;0.90;;;21.10;21.00;;;;;;5043412;28;20245;-54
2021/01/22 08:54:59;;;;;;;1.27;1.00;;;21.10;21.00;;;;;;5046028;28;20641;-55
2021/01/22 08:57:27;;;;;;;1.00;1.00;;;21.10;21.00;;;;;;5051089;28;20175;-54
2021/01/22 08:59:54;;;;;;;1.33;1.13;;;21.10;21.00;;;;;;5045942;28;20181;-54
2021/01/22 09:02:54;;;;;;;1.52;1.42;;;21.20;21.10;;;;;;5043074;28;20198;-55
2021/01/22 09:05:21;;;;;;;0.98;0.70;;;21.20;21.10;;;;;;5047135;28;20175;-55
2021/01/22 09:07:47;;;;;;;1.30;0.98;;;21.20;21.10;;;;;;5046790;28;20186;-54
2021/01/22 09:10:21;;;;;;;0.97;0.87;;;21.20;21.10;;;;;;5050931;28;20210;-55
2021/01/22 09:12:47;;;;;;;0.98;0.93;;;21.20;21.10;;;;;;5049480;28;20444;-55
2021/01/22 09:15:16;;;;;;;1.00;0.80;;;21.20;21.10;;;;;;5046192;28;20191;-54
2021/01/22 09:17:49;;;;;;;1.15;1.05;;;21.20;21.10;;;;;;5048374;28;20473;-55
2021/01/22 09:20:15;;;;;;;1.00;0.82;;;21.20;21.10;;;;;;5037160;28;20183;-54
2021/01/22 09:22:43;;;;;;;1.33;0.93;;;21.30;21.10;;;;;;5036652;28;20244;-55
2021/01/22 09:25:11;;;;;;;1.00;0.90;;;21.30;21.10;;;;;;5038896;28;20178;-54
2021/01/22 09:27:39;;;;;;;1.00;0.90;;;21.30;21.10;;;;;;5046610;28;20205;-55
2021/01/22 09:30:08;;;;;;;1.10;1.00;;;21.30;21.10;;;;;;5046341;28;20156;-55
2021/01/22 09:32:34;;;;;;;1.15;0.90;;;21.30;21.10;;;;;;5050772;28;20272;-55
2021/01/22 09:35:00;;;;;;;1.80;0.90;;;21.30;21.10;;;;;;5047449;28;20187;-55
2021/01/22 09:37:25;;;;;;;1.10;0.93;;;21.40;21.10;;;;;;5021263;28;20187;-55
2021/01/22 09:39:51;;;;;;;1.37;1.03;;;21.40;21.00;;;;;;5048055;28;20867;-55
2021/01/22 09:42:17;;;;;;;1.27;1.17;;;21.50;21.00;;;;;;5050801;28;20281;-55
2021/01/22 09:44:43;;;;;;;1.30;1.10;;;21.50;20.90;;;;;;5046241;28;20262;-56
2021/01/22 09:47:08;;;;;;;1.55;0.90;;;21.50;20.80;;;;;;5050473;28;20186;-55
2021/01/22 09:49:34;;;;;;;1.83;1.50;;;21.60;20.80;;;;;;5049520;28;20163;-54
2021/01/22 09:52:00;;;;;;;1.13;1.03;;;21.60;20.80;;;;;;5043419;28;20179;-55
2021/01/22 09:54:25;;;;;;;1.10;1.00;;;21.60;20.70;;;;;;5049245;28;20499;-55
2021/01/22 09:56:51;;;;;;;0.97;0.83;;;21.60;20.70;;;;;;5048333;28;20209;-55
2021/01/22 09:59:17;;;;;;;1.00;0.90;;;21.60;20.70;;;;;;5049648;28;20289;-54
2021/01/22 10:01:43;;;;;;;1.30;1.20;;;21.60;20.60;;;;;;5050173;28;20223;-55
2021/01/22 10:04:08;;;;;;;1.00;0.90;;;21.70;20.70;;;;;;5028905;28;20262;-55
2021/01/22 10:06:34;;;;;;;1.10;1.00;;;21.70;20.60;;;;;;5048100;28;20254;-54
2021/01/22 10:09:00;;;;;;;1.03;0.80;;;21.70;20.50;;;;;;5049479;28;20491;-56
2021/01/22 10:11:26;;;;;;;2.13;1.10;;;21.80;20.50;;;;;;5047722;28;20262;-55
2021/01/22 10:13:58;;;;;;;1.23;0.97;;;21.80;20.40;;;;;;5046936;28;20415;-55
2021/01/22 10:16:26;;;;;;;1.83;0.95;;;21.90;20.40;;;;;;5048816;28;20441;-55
2021/01/22 10:18:53;;;;;;;1.05;0.95;;;21.90;20.30;;;;;;5049921;28;20163;-55
2021/01/22 10:21:23;;;;;;;1.02;0.80;;;21.90;20.20;;;;;;5050992;28;20178;-54
2021/01/22 10:23:50;;;;;;;1.40;1.23;;;21.90;20.20;;;;;;5041836;28;20210;-55
2021/01/22 10:26:17;;;;;;;1.27;1.10;;;21.90;20.10;;;;;;5049052;28;20196;-55
2021/01/22 10:28:43;;;;;;;1.23;1.15;;;22.00;20.20;;;;;;5050835;28;20176;-56
2021/01/22 10:31:10;;;;;;;0.93;0.80;;;21.90;20.10;;;;;;5031914;28;20183;-56
2021/01/22 10:33:36;;;;;;;0.98;0.90;;;22.00;20.10;;;;;;5044929;28;20328;-56
2021/01/22 10:36:03;;;;;;;1.00;0.80;;;22.00;20.10;;;;;;5028550;28;20199;-56
2021/01/22 10:38:29;;;;;;;2.65;1.00;;;22.10;20.10;;;;;;5052483;28;20171;-55
2021/01/22 10:40:56;;;;;;;1.63;1.10;;;22.00;19.90;;;;;;5050596;28;20186;-55
2021/01/22 10:43:22;;;;;;;1.40;0.90;;;22.10;20.50;;;;;;5053591;28;20452;-55
2021/01/22 10:45:49;;;;;;;1.17;0.85;;;22.10;20.00;;;;;;5043202;28;20176;-55
2021/01/22 10:48:15;;;;;;;0.93;0.82;;;22.10;19.90;;;;;;5042746;28;20198;-54
2021/01/22 10:50:40;;;;;;;1.10;1.00;;;22.10;19.90;;;;;;5037172;28;20214;-54
2021/01/22 10:53:06;;;;;;;0.97;0.97;;;22.10;19.90;;;;;;5049233;28;20437;-55
2021/01/22 10:55:32;;;;;;;1.10;1.00;;;22.10;19.90;;;;;;5053598;28;20202;-55
2021/01/22 10:57:57;;;;;;;0.90;0.90;;;22.10;19.90;;;;;;5042913;28;20234;-55
2021/01/22 11:00:23;;;;;;;1.20;0.93;;;22.10;19.90;;;;;;5046705;28;20217;-56
2021/01/22 11:02:49;;;;;;;0.87;0.80;;;22.20;19.90;;;;;;5052555;28;20199;-55
2021/01/22 11:05:14;;;;;;;2.60;1.13;;;22.20;19.80;;;;;;5050389;28;20638;-55
2021/01/22 11:07:40;;;;;;;1.00;0.90;;;22.20;19.70;;;;;;5053014;28;20496;-56
2021/01/22 11:10:07;;;;;;;1.08;0.98;;;22.30;19.70;;;;;;5053959;28;20455;-55
2021/01/22 11:12:33;;;;;;;1.00;0.90;;;22.30;19.70;;;;;;5033548;28;20183;-55
2021/01/22 11:14:58;;;;;;;1.10;1.00;;;22.40;19.60;;;;;;5051311;28;20173;-56
2021/01/22 11:17:24;;;;;;;1.10;0.90;;;22.40;19.60;;;;;;5053009;28;20187;-55
2021/01/22 11:19:50;;;;;;;1.10;0.87;;;22.40;19.50;;;;;;5050129;28;20554;-55
2021/01/22 11:22:15;;;;;;;1.20;1.00;;;22.50;19.40;;;;;;5040747;28;20218;-55
2021/01/22 11:24:41;;;;;;;0.93;0.83;;;22.50;19.40;;;;;;5049624;28;20673;-54
2021/01/22 11:27:07;;;;;;;1.13;0.80;;;22.50;19.40;;;;;;5052936;28;20217;-56
2021/01/22 11:29:32;;;;;;;1.40;1.30;;;21.80;18.90;;;;;;5045855;28;20198;-55
2021/01/22 11:31:58;;;;;;;1.93;1.17;;;22.50;19.30;;;;;;5052291;28;20186;-56
2021/01/22 11:34:24;;;;;;;1.17;1.00;;;22.50;19.30;;;;;;5047892;28;20167;-55
2021/01/22 11:36:49;;;;;;;1.73;1.20;;;22.50;19.30;;;;;;5050383;28;20699;-57
2021/01/22 11:39:15;;;;;;;1.70;1.20;;;22.50;19.40;;;;;;5050462;28;20198;-54
2021/01/22 11:41:41;;;;;;;1.87;0.97;;;22.50;19.40;;;;;;5050602;28;20194;-55
2021/01/22 11:44:09;;;;;;;1.53;1.10;;;22.50;19.30;;;;;;5048463;28;20187;-55
2021/01/22 11:46:35;;;;;;;1.60;1.00;;;22.60;19.40;;;;;;5052990;28;20192;-55
2021/01/22 11:49:01;;;;;;;1.67;1.58;;;22.60;19.30;;;;;;5053574;28;20178;-56
2021/01/22 11:51:27;;;;;;;1.33;1.23;;;22.60;19.30;;;;;;5050532;28;20673;-56
2021/01/22 11:53:52;;;;;;;1.80;1.00;;;22.60;19.30;;;;;;5051981;28;20526;-57
2021/01/22 11:56:18;;;;;;;3.63;1.20;;;22.60;19.30;;;;;;5051369;28;20186;-56
2021/01/22 11:58:44;;;;;;;1.30;1.20;;;22.60;19.30;;;;;;5051720;28;20190;-55
2021/01/22 12:01:10;;;;;;;1.50;1.03;;;22.60;19.30;;;;;;5050642;28;20186;-56
2021/01/22 12:03:35;;;;;;;2.10;1.38;;;22.60;19.30;;;;;;5053759;28;20191;-55
2021/01/22 12:06:01;;;;;;;1.53;1.13;;;22.60;19.40;;;;;;5032397;28;20614;-56
2021/01/22 12:08:27;;;;;;;1.60;1.40;;;22.60;19.40;;;;;;5050337;28;20214;-55
2021/01/22 12:10:55;;;;;;;1.30;1.00;;;;;;;;;;5053571;28;20250;-55
2021/01/22 12:13:21;;;;;;;1.30;0.98;;;22.50;18.90;;;;;;5048436;28;20179;-55
2021/01/22 12:15:47;;;;;;;2.57;1.17;;;22.50;19.40;;;;;;5040943;28;20163;-54
2021/01/22 12:18:13;;;;;;;1.10;1.00;;;22.50;19.40;;;;;;5052326;28;20539;-55
2021/01/22 12:20:38;;;;;;;2.30;1.17;;;22.50;19.40;;;;;;5048579;28;20249;-55
2021/01/22 12:23:04;;;;;;;1.40;1.30;;;22.50;19.40;;;;;;5048205;28;20420;-54
2021/01/22 12:25:30;;;;;;;2.07;1.10;;;22.50;19.40;;;;;;5052904;28;20175;-54
2021/01/22 12:27:55;;;;;;;1.53;1.20;;;22.50;19.40;;;;;;5052394;28;20179;-55
2021/01/22 12:30:21;;;;;;;1.73;1.10;;;22.60;19.50;;;;;;5049339;28;20182;-54
2021/01/22 12:32:47;;;;;;;1.38;1.20;;;22.60;19.40;;;;;;5043519;28;20504;-55
2021/01/22 12:35:15;;;;;;;1.33;1.23;;;22.60;19.30;;;;;;5047751;28;20163;-54
2021/01/22 12:37:41;;;;;;;0.90;0.80;;;22.60;19.30;;;;;;5050843;28;20183;-55
2021/01/22 12:40:07;;;;;;;1.10;0.98;;;22.70;19.30;;;;;;5051842;28;20634;-55
2021/01/22 12:42:33;;;;;;;1.13;1.02;;;22.70;19.30;;;;;;5049482;28;20206;-55
2021/01/22 12:44:59;;;;;;;1.10;1.00;;;22.70;19.20;;;;;;5037448;28;20175;-54
2021/01/22 12:47:24;;;;;;;1.20;0.83;;;22.70;19.20;;;;;;5052508;28;20656;-55
2021/01/22 12:49:50;;;;;;;1.73;0.83;;;22.70;19.20;;;;;;5050172;28;20649;-55
2021/01/22 12:52:16;;;;;;;1.23;0.83;;;22.70;19.20;;;;;;5042729;28;20235;-54